Time;durP1;ratioP1;P1;durP2;ratioP2;P2;SDS_P1;SDS_P2;PMS_P1;PMS_P2;Temp;Humidity;BMP_temperature;BMP_pressure;BME280_temperature;BME280_humidity;BME280_pressure;Samples;Min_cycle;Max_cycle;Signal;HPM_P1;HPM_P2
2022/03/30 00:01:56;;;;;;;16.13;7.30;;;4.00;99.90;;;;;;10371304;28;20208;-79
2022/03/30 00:07:18;;;;;;;14.50;6.33;;;4.00;99.90;;;;;;10384902;28;20300;-79
2022/03/30 00:12:40;;;;;;;18.57;8.53;;;3.80;99.90;;;;;;10399104;28;20239;-78
2022/03/30 00:18:02;;;;;;;15.23;8.00;;;3.70;99.90;;;;;;10370701;28;20193;-80
2022/03/30 00:23:24;;;;;;;17.83;7.67;;;3.70;99.90;;;;;;10382350;28;20235;-79
2022/03/30 00:28:46;;;;;;;9.77;5.53;;;3.70;99.90;;;;;;10384194;28;20226;-80
2022/03/30 00:34:08;;;;;;;14.60;5.83;;;3.70;99.90;;;;;;10369088;28;20493;-79
2022/03/30 00:39:30;;;;;;;14.20;5.30;;;3.90;99.90;;;;;;10397740;28;20313;-80
2022/03/30 00:44:53;;;;;;;8.17;3.90;;;3.90;99.90;;;;;;10398120;28;20225;-78
2022/03/30 00:50:17;;;;;;;12.87;5.97;;;3.90;99.90;;;;;;10382987;28;20216;-78
2022/03/30 00:55:39;;;;;;;9.40;4.60;;;4.00;99.90;;;;;;10396890;28;20204;-77
2022/03/30 01:01:02;;;;;;;9.23;4.30;;;4.00;99.90;;;;;;10382751;28;20550;-78
2022/03/30 01:06:24;;;;;;;10.77;6.37;;;3.70;99.90;;;;;;10380800;28;20205;-78
2022/03/30 01:11:47;;;;;;;11.33;5.07;;;3.60;99.90;;;;;;10371953;28;20208;-78
2022/03/30 01:17:09;;;;;;;8.30;4.17;;;3.70;99.90;;;;;;10395955;28;20194;-81
2022/03/30 01:22:31;;;;;;;9.80;4.47;;;3.70;99.90;;;;;;10381758;28;20232;-79
2022/03/30 01:27:53;;;;;;;7.43;3.63;;;3.70;99.90;;;;;;10382417;28;20207;-79
2022/03/30 01:33:15;;;;;;;5.77;3.40;;;3.70;99.90;;;;;;10382052;28;20278;-78
2022/03/30 01:38:37;;;;;;;7.10;3.67;;;3.70;99.90;;;;;;10381652;28;20280;-81
2022/03/30 01:43:59;;;;;;;11.70;4.33;;;3.70;99.90;;;;;;10368083;28;20351;-78
2022/03/30 01:49:21;;;;;;;8.90;3.77;;;3.70;99.90;;;;;;10367964;28;20198;-78
2022/03/30 01:54:44;;;;;;;8.87;3.70;;;3.70;99.90;;;;;;10370302;28;20292;-80
2022/03/30 02:00:07;;;;;;;8.60;4.30;;;3.80;99.90;;;;;;10359990;28;20186;-80
2022/03/30 02:05:33;;;;;;;13.73;5.60;;;3.80;99.90;;;;;;10343920;28;20240;-78
2022/03/30 02:10:54;;;;;;;10.00;5.43;;;3.90;99.90;;;;;;10348805;28;20535;-78
2022/03/30 02:16:16;;;;;;;8.87;3.97;;;3.90;99.90;;;;;;10383094;28;20215;-79
2022/03/30 02:21:38;;;;;;;7.30;4.07;;;3.90;99.90;;;;;;10385920;28;20208;-78
2022/03/30 02:27:00;;;;;;;12.20;4.27;;;3.80;99.90;;;;;;10362090;28;20201;-79
2022/03/30 02:32:22;;;;;;;11.77;4.00;;;3.70;99.90;;;;;;10362640;28;20375;-78
2022/03/30 02:37:44;;;;;;;9.73;4.33;;;3.70;99.90;;;;;;10347585;28;20292;-77
2022/03/30 02:43:06;;;;;;;10.57;4.33;;;3.70;99.90;;;;;;10361306;28;20270;-79
2022/03/30 02:48:28;;;;;;;14.37;5.80;;;3.70;99.90;;;;;;10361164;28;20198;-77
2022/03/30 02:53:50;;;;;;;11.80;5.10;;;3.50;99.90;;;;;;10384480;28;20255;-79
2022/03/30 02:59:12;;;;;;;11.00;6.40;;;3.40;99.90;;;;;;10401103;28;20200;-78
2022/03/30 03:04:34;;;;;;;13.10;5.33;;;3.40;99.90;;;;;;10387601;28;20225;-80
2022/03/30 03:09:56;;;;;;;11.20;5.80;;;3.30;99.90;;;;;;10387350;28;20509;-78
2022/03/30 03:15:19;;;;;;;14.40;6.50;;;3.20;99.90;;;;;;10360109;28;20238;-80
2022/03/30 03:20:43;;;;;;;14.50;5.67;;;3.00;99.90;;;;;;10349084;28;20201;-77
2022/03/30 03:26:05;;;;;;;15.37;5.87;;;3.00;99.90;;;;;;10346300;28;20413;-80
2022/03/30 03:31:26;;;;;;;16.30;6.63;;;3.00;99.90;;;;;;10359590;28;20193;-78
2022/03/30 03:36:48;;;;;;;21.17;8.10;;;3.20;99.90;;;;;;10377759;28;20265;-80
2022/03/30 03:42:11;;;;;;;18.70;7.53;;;3.30;99.90;;;;;;10379151;28;20307;-80
2022/03/30 03:47:33;;;;;;;14.03;6.13;;;3.40;99.90;;;;;;10377718;28;20197;-80
2022/03/30 03:52:56;;;;;;;10.17;4.97;;;3.60;99.90;;;;;;10380773;28;20200;-80
2022/03/30 03:58:20;;;;;;;8.70;4.57;;;3.70;99.90;;;;;;10401254;28;20229;-82
2022/03/30 04:03:45;;;;;;;13.17;5.63;;;3.80;99.90;;;;;;10399131;28;20555;-81
2022/03/30 04:09:07;;;;;;;13.10;5.40;;;3.90;99.90;;;;;;10398840;28;20507;-81
2022/03/30 04:14:29;;;;;;;9.90;4.73;;;3.80;99.90;;;;;;10397917;28;20204;-79
2022/03/30 04:19:51;;;;;;;13.10;7.47;;;3.80;99.90;;;;;;10371289;28;20434;-81
2022/03/30 04:25:13;;;;;;;12.70;5.60;;;3.80;99.90;;;;;;10383309;28;20396;-81
2022/03/30 04:30:35;;;;;;;19.03;7.40;;;3.70;99.90;;;;;;10383827;28;20196;-78
2022/03/30 04:35:57;;;;;;;12.73;6.47;;;3.60;99.90;;;;;;10370103;28;20243;-80
2022/03/30 04:41:19;;;;;;;14.83;7.67;;;3.60;99.90;;;;;;10397058;28;20455;-81
2022/03/30 04:46:41;;;;;;;14.37;7.43;;;3.60;99.90;;;;;;10396972;28;20225;-82
2022/03/30 04:52:03;;;;;;;32.67;13.83;;;3.70;99.90;;;;;;10396663;28;20194;-79
2022/03/30 04:57:25;;;;;;;30.43;13.73;;;3.70;99.90;;;;;;10396457;28;20426;-79
2022/03/30 05:02:47;;;;;;;18.43;7.07;;;3.70;99.90;;;;;;10396343;28;20280;-80
2022/03/30 05:08:09;;;;;;;17.77;5.97;;;3.80;99.90;;;;;;10397257;28;20200;-81
2022/03/30 05:13:31;;;;;;;11.60;6.17;;;3.90;99.90;;;;;;10382142;28;20215;-83
2022/03/30 05:18:53;;;;;;;19.13;9.90;;;3.90;99.90;;;;;;10363592;28;20284;-81
2022/03/30 05:24:15;;;;;;;23.00;14.30;;;3.90;99.90;;;;;;10395284;28;20229;-79
2022/03/30 05:29:37;;;;;;;19.10;9.17;;;3.90;99.90;;;;;;10401940;28;20275;-82
2022/03/30 05:35:00;;;;;;;75.33;35.70;;;3.80;99.90;;;;;;10368527;28;20241;-79
2022/03/30 05:40:22;;;;;;;47.17;26.07;;;3.80;99.90;;;;;;10381161;28;20554;-83
2022/03/30 05:45:44;;;;;;;61.20;37.00;;;3.90;99.90;;;;;;10381816;28;20239;-81
2022/03/30 05:51:07;;;;;;;45.63;25.87;;;4.00;99.90;;;;;;10394846;28;20243;-79
2022/03/30 06:02:11;;;;;;;19.40;8.43;;;3.80;99.90;;;;;;10395145;28;20499;-82
2022/03/30 06:07:33;;;;;;;16.10;8.93;;;3.80;99.90;;;;;;10380683;28;20197;-82
2022/03/30 06:12:56;;;;;;;29.97;13.27;;;3.60;99.90;;;;;;10367577;28;20207;-81
2022/03/30 06:18:17;;;;;;;23.10;11.17;;;3.40;99.90;;;;;;10380397;28;20251;-79
2022/03/30 06:23:39;;;;;;;11.97;8.13;;;3.20;99.90;;;;;;10406821;28;20287;-80
2022/03/30 06:29:01;;;;;;;9.80;7.00;;;3.00;99.90;;;;;;10422039;28;20196;-81
2022/03/30 06:34:24;;;;;;;14.60;6.50;;;2.90;99.90;;;;;;10421588;28;20200;-79
2022/03/30 06:39:46;;;;;;;16.43;8.50;;;2.80;99.90;;;;;;10421090;28;20275;-80
2022/03/30 06:45:09;;;;;;;14.50;7.63;;;2.70;99.90;;;;;;10433739;28;20485;-79
2022/03/30 06:50:32;;;;;;;7.93;5.33;;;2.70;99.90;;;;;;10396158;28;20561;-80
2022/03/30 06:55:54;;;;;;;11.83;5.67;;;2.50;99.90;;;;;;10409968;28;20449;-79
2022/03/30 07:01:16;;;;;;;16.63;9.77;;;2.40;99.90;;;;;;10422840;28;20214;-79
2022/03/30 07:10:14;;;;;;;15.33;8.60;;;2.20;99.90;;;;;;10389071;28;20232;-82
2022/03/30 07:12:20;;;;;;;9.20;5.97;;;2.20;99.90;;;;;;10387072;28;20394;-81
2022/03/30 07:17:46;;;;;;;7.23;4.90;;;2.30;99.90;;;;;;10385775;28;20283;-81
2022/03/30 07:23:10;;;;;;;5.97;4.60;;;2.20;99.90;;;;;;10379191;28;20238;-77
2022/03/30 07:28:32;;;;;;;6.67;4.30;;;2.20;99.90;;;;;;10395132;28;20253;-79
2022/03/30 07:33:55;;;;;;;7.47;4.00;;;2.00;99.90;;;;;;10382077;28;20212;-78
2022/03/30 07:39:17;;;;;;;9.47;5.13;;;2.20;99.90;;;;;;10394067;28;20238;-80
2022/03/30 07:44:39;;;;;;;6.53;3.33;;;2.30;99.90;;;;;;10393442;28;20471;-80
2022/03/30 07:50:01;;;;;;;12.40;4.17;;;2.20;99.90;;;;;;10380880;28;20234;-78
2022/03/30 07:55:25;;;;;;;7.10;4.50;;;2.20;99.90;;;;;;10394974;28;20207;-79
2022/03/30 08:00:47;;;;;;;8.10;3.43;;;2.00;99.90;;;;;;10394952;28;20207;-78
2022/03/30 08:06:10;;;;;;;6.87;3.20;;;1.90;99.90;;;;;;10393370;28;20244;-79
2022/03/30 08:11:32;;;;;;;12.40;5.93;;;2.00;99.90;;;;;;10380082;28;20212;-79
2022/03/30 08:16:54;;;;;;;8.20;4.83;;;1.90;99.90;;;;;;10394175;28;20249;-81
2022/03/30 08:22:28;;;;;;;11.80;3.90;;;1.70;99.90;;;;;;10381319;28;20211;-80
2022/03/30 08:27:50;;;;;;;18.93;9.00;;;1.90;99.90;;;;;;10380012;28;20208;-80
2022/03/30 08:33:12;;;;;;;12.77;6.50;;;1.70;99.90;;;;;;10394567;28;20234;-79
2022/03/30 08:38:35;;;;;;;22.63;10.20;;;1.80;99.90;;;;;;10392052;28;20258;-79
2022/03/30 08:43:59;;;;;;;20.00;8.33;;;1.80;99.90;;;;;;10379912;28;20240;-81
2022/03/30 08:49:22;;;;;;;11.23;4.80;;;1.80;99.90;;;;;;10394661;28;20385;-78
2022/03/30 08:54:46;;;;;;;14.40;5.70;;;1.70;99.90;;;;;;10391385;28;20215;-81
2022/03/30 09:00:13;;;;;;;18.93;7.70;;;1.70;99.90;;;;;;10391178;28;20199;-78
2022/03/30 09:05:39;;;;;;;31.90;10.13;;;1.90;99.90;;;;;;10377721;28;20234;-81
2022/03/30 09:11:03;;;;;;;37.03;14.13;;;2.20;99.90;;;;;;10393467;28;20204;-78
2022/03/30 09:16:39;;;;;;;30.90;11.73;;;2.30;99.90;;;;;;10373970;28;20210;-78
2022/03/30 09:22:03;;;;;;;17.20;6.53;;;2.20;99.90;;;;;;10387355;28;20206;-80
2022/03/30 09:27:26;;;;;;;6.53;4.13;;;2.30;99.90;;;;;;10377672;28;20777;-79
2022/03/30 09:32:50;;;;;;;23.07;9.97;;;2.20;99.90;;;;;;10363806;28;20277;-78
2022/03/30 09:38:16;;;;;;;12.07;5.47;;;2.60;99.90;;;;;;10377226;28;20232;-87
2022/03/30 09:43:41;;;;;;;8.87;3.60;;;3.00;99.90;;;;;;10376031;28;20432;-82
2022/03/30 09:49:03;;;;;;;13.30;5.37;;;3.10;99.90;;;;;;10378181;28;20199;-78
2022/03/30 09:54:49;;;;;;;15.80;6.63;;;3.20;99.90;;;;;;10391759;28;20238;-79
2022/03/30 10:00:18;;;;;;;17.37;7.37;;;3.30;99.90;;;;;;10389814;28;20235;-81
2022/03/30 10:05:40;;;;;;;12.77;5.73;;;3.40;99.90;;;;;;10390425;28;20257;-83
2022/03/30 10:11:02;;;;;;;18.07;7.00;;;3.20;99.90;;;;;;10376648;28;20204;-80
2022/03/30 10:16:25;;;;;;;28.90;13.57;;;3.50;99.90;;;;;;10385327;28;20203;-80
2022/03/30 10:22:10;;;;;;;22.73;9.30;;;4.00;99.90;;;;;;10383942;28;20208;-81
2022/03/30 10:28:12;;;;;;;46.10;16.13;;;4.20;99.90;;;;;;10392460;28;20775;-81
2022/03/30 10:33:39;;;;;;;21.23;7.60;;;4.10;99.90;;;;;;10384517;28;20235;-79
2022/03/30 10:39:27;;;;;;;17.00;7.90;;;3.80;99.90;;;;;;10398057;28;20577;-79
2022/03/30 10:45:23;;;;;;;6.03;3.50;;;3.60;99.90;;;;;;10358540;28;20251;-78
2022/03/30 10:50:58;;;;;;;10.27;4.23;;;3.60;99.90;;;;;;10342626;28;20483;-78
2022/03/30 10:56:22;;;;;;;21.83;10.03;;;3.40;99.90;;;;;;10356331;28;20570;-80
2022/03/30 11:01:46;;;;;;;37.57;12.93;;;3.70;99.90;;;;;;10343248;28;20215;-84
2022/03/30 11:07:13;;;;;;;20.87;8.50;;;4.70;97.40;;;;;;10383591;28;20229;-79
2022/03/30 11:12:56;;;;;;;19.90;7.73;;;6.60;85.30;;;;;;10399885;28;20240;-78
2022/03/30 11:18:19;;;;;;;17.93;6.90;;;7.40;62.10;;;;;;10396667;28;20232;-79
2022/03/30 11:24:16;;;;;;;20.33;8.27;;;7.60;53.40;;;;;;10400032;28;20227;-79
2022/03/30 11:29:41;;;;;;;19.77;6.13;;;6.90;53.30;;;;;;10416149;28;20242;-78
2022/03/30 11:35:06;;;;;;;17.27;6.23;;;6.30;56.20;;;;;;10394573;28;20430;-78
2022/03/30 11:40:29;;;;;;;18.40;7.97;;;5.40;57.70;;;;;;10394766;28;20576;-78
2022/03/30 11:45:53;;;;;;;13.13;6.40;;;5.80;58.40;;;;;;10380805;28;20226;-78
2022/03/30 11:51:15;;;;;;;12.83;4.00;;;7.30;49.70;;;;;;10393874;28;20200;-81
2022/03/30 11:56:37;;;;;;;5.97;3.40;;;7.50;42.10;;;;;;10393577;28;20417;-79
2022/03/30 12:02:01;;;;;;;6.70;2.47;;;8.70;39.00;;;;;;10395601;28;20194;-79
2022/03/30 12:07:24;;;;;;;2.83;1.67;;;9.00;33.20;;;;;;10367121;28;20226;-81
2022/03/30 12:12:49;;;;;;;6.03;3.20;;;9.30;33.60;;;;;;10352937;28;20254;-83
2022/03/30 12:18:11;;;;;;;4.90;2.80;;;9.90;30.00;;;;;;10389066;28;20226;-82
2022/03/30 12:23:33;;;;;;;5.33;2.93;;;9.40;28.70;;;;;;10387989;28;20263;-79
2022/03/30 12:29:06;;;;;;;6.00;2.80;;;9.40;29.80;;;;;;10393018;28;20234;-79
2022/03/30 12:34:34;;;;;;;4.97;1.77;;;9.70;29.10;;;;;;10392977;28;20196;-80
2022/03/30 12:40:10;;;;;;;6.47;3.07;;;8.70;29.10;;;;;;10379398;28;20231;-81
2022/03/30 12:45:33;;;;;;;9.03;4.27;;;9.30;29.60;;;;;;10393154;28;20222;-79
2022/03/30 12:50:59;;;;;;;7.07;2.00;;;9.50;29.50;;;;;;10378681;28;20208;-83
2022/03/30 12:56:22;;;;;;;4.90;2.60;;;8.30;30.70;;;;;;10392828;28;20216;-80
2022/03/30 13:01:50;;;;;;;7.30;2.63;;;8.40;30.50;;;;;;10379870;28;20240;-80
2022/03/30 13:07:14;;;;;;;2.93;2.00;;;8.70;29.60;;;;;;10401440;28;20250;-80
2022/03/30 13:12:44;;;;;;;8.53;3.93;;;9.10;29.20;;;;;;10414172;28;20217;-78
2022/03/30 13:18:09;;;;;;;3.73;2.60;;;8.90;28.70;;;;;;10401713;28;20238;-79
2022/03/30 13:23:38;;;;;;;9.83;6.13;;;7.70;29.50;;;;;;10391553;28;20259;-80
2022/03/30 13:29:01;;;;;;;20.63;8.97;;;7.80;30.10;;;;;;10402921;28;20199;-79
2022/03/30 13:34:25;;;;;;;6.67;3.13;;;8.50;29.10;;;;;;10395150;28;20201;-84
2022/03/30 13:39:47;;;;;;;7.03;3.17;;;8.80;27.80;;;;;;10400330;28;20230;-78
2022/03/30 13:45:10;;;;;;;10.37;4.53;;;7.60;28.80;;;;;;10396078;28;20232;-80
2022/03/30 13:50:33;;;;;;;10.27;3.20;;;7.30;29.80;;;;;;10401366;28;20244;-82
2022/03/30 13:55:55;;;;;;;12.60;4.33;;;7.60;30.00;;;;;;10389932;28;20202;-81
2022/03/30 14:01:18;;;;;;;7.63;3.17;;;7.50;29.90;;;;;;10389955;28;20244;-77
2022/03/30 14:06:41;;;;;;;11.80;5.63;;;7.00;29.80;;;;;;10412170;28;20235;-78
2022/03/30 14:12:03;;;;;;;10.23;3.30;;;6.70;31.20;;;;;;10406389;28;20199;-78
2022/03/30 14:17:25;;;;;;;5.93;2.73;;;6.40;33.80;;;;;;10403958;28;20203;-78
2022/03/30 14:22:49;;;;;;;18.40;5.60;;;6.60;34.90;;;;;;10384668;28;20536;-78
2022/03/30 14:28:12;;;;;;;14.33;5.53;;;6.80;33.30;;;;;;10384004;28;20214;-78
2022/03/30 14:33:34;;;;;;;11.60;4.63;;;6.50;32.90;;;;;;10404004;28;20508;-85
2022/03/30 14:38:57;;;;;;;48.63;17.53;;;6.10;35.00;;;;;;10399278;28;20436;-79
2022/03/30 14:44:20;;;;;;;8.20;3.47;;;6.00;38.00;;;;;;10400833;28;20596;-78
2022/03/30 14:49:42;;;;;;;14.57;5.33;;;5.90;39.70;;;;;;10401071;28;20207;-81
2022/03/30 14:55:05;;;;;;;24.43;9.43;;;5.70;41.00;;;;;;10397218;28;20386;-81
2022/03/30 15:00:28;;;;;;;10.47;4.53;;;5.40;42.50;;;;;;10390380;28;20272;-77
2022/03/30 15:05:50;;;;;;;4.37;2.47;;;5.40;44.90;;;;;;10390829;28;20252;-84
2022/03/30 15:11:13;;;;;;;7.30;3.50;;;5.20;44.90;;;;;;10376923;28;20220;-76
2022/03/30 15:16:36;;;;;;;4.38;2.40;;;5.20;45.90;;;;;;10366576;28;20491;-79
2022/03/30 15:22:01;;;;;;;6.97;2.20;;;4.90;47.00;;;;;;10409785;28;20193;-77
2022/03/30 15:27:24;;;;;;;9.37;5.67;;;4.70;51.60;;;;;;10396896;28;20250;-79
2022/03/30 15:32:50;;;;;;;8.93;4.60;;;4.60;59.70;;;;;;10397514;28;20218;-77
2022/03/30 15:38:12;;;;;;;7.97;3.20;;;4.70;66.00;;;;;;10398800;28;20225;-77
2022/03/30 15:43:34;;;;;;;4.90;2.13;;;4.70;70.40;;;;;;10399696;28;20198;-77
2022/03/30 15:48:58;;;;;;;6.27;2.40;;;4.50;66.00;;;;;;10400841;28;20196;-78
2022/03/30 15:54:21;;;;;;;5.63;2.30;;;4.40;69.40;;;;;;10399541;28;20279;-78
2022/03/30 15:59:43;;;;;;;6.77;2.93;;;4.30;70.60;;;;;;10405693;28;20230;-77
2022/03/30 16:05:06;;;;;;;10.10;4.20;;;4.20;72.20;;;;;;10399582;28;20285;-77
2022/03/30 16:10:29;;;;;;;13.10;6.00;;;4.10;71.20;;;;;;10399867;28;20203;-76
2022/03/30 16:15:54;;;;;;;13.90;6.43;;;4.10;74.40;;;;;;10377024;28;20206;-78
2022/03/30 16:21:16;;;;;;;17.37;6.43;;;3.90;81.20;;;;;;10416390;28;20193;-79
2022/03/30 16:26:38;;;;;;;13.90;6.57;;;3.90;82.80;;;;;;10397476;28;20229;-77
2022/03/30 16:32:00;;;;;;;15.70;5.97;;;3.80;80.00;;;;;;10401078;28;20488;-76
2022/03/30 16:37:23;;;;;;;15.63;7.13;;;3.70;79.50;;;;;;10397713;28;20236;-80
2022/03/30 16:42:45;;;;;;;16.37;5.67;;;3.70;83.80;;;;;;10397622;28;20207;-79
2022/03/30 16:48:07;;;;;;;14.03;7.00;;;3.50;85.60;;;;;;10383421;28;20308;-79
2022/03/30 16:53:30;;;;;;;13.47;6.73;;;;;;;;;;10398878;28;20199;-77
2022/03/30 16:58:52;;;;;;;21.57;8.00;;;3.10;87.30;;;;;;10398232;28;20288;-79
2022/03/30 17:04:14;;;;;;;14.63;7.63;;;3.10;86.60;;;;;;10396669;28;20544;-78
2022/03/30 17:15:16;;;;;;;27.87;11.73;;;2.80;90.90;;;;;;10395542;28;20203;-78
2022/03/30 17:20:38;;;;;;;19.90;8.87;;;2.80;92.20;;;;;;10412283;28;20222;-78
2022/03/30 17:26:00;;;;;;;11.63;6.87;;;2.70;91.30;;;;;;10396750;28;20224;-77
2022/03/30 17:31:22;;;;;;;29.80;11.60;;;2.60;91.00;;;;;;10396516;28;20373;-76
2022/03/30 17:36:44;;;;;;;30.23;13.80;;;2.50;91.80;;;;;;10395478;28;20285;-76
2022/03/30 17:42:06;;;;;;;15.23;7.57;;;2.40;92.40;;;;;;10396478;28;20200;-76
2022/03/30 17:47:28;;;;;;;13.40;7.00;;;2.30;92.20;;;;;;10396090;28;20225;-76
2022/03/30 17:52:50;;;;;;;21.93;12.80;;;2.20;92.60;;;;;;10395469;28;20227;-76
2022/03/30 17:58:13;;;;;;;24.33;9.70;;;2.20;93.10;;;;;;10395195;28;20228;-77
2022/03/30 18:03:36;;;;;;;32.43;15.80;;;2.20;93.70;;;;;;10395680;28;20187;-78
2022/03/30 18:08:58;;;;;;;28.20;8.50;;;2.10;94.10;;;;;;10395973;28;20193;-76
2022/03/30 18:14:20;;;;;;;20.70;8.33;;;1.90;94.90;;;;;;10384600;28;20229;-76
2022/03/30 18:19:43;;;;;;;24.27;10.53;;;1.90;95.10;;;;;;10387211;28;20194;-79
2022/03/30 18:25:05;;;;;;;26.13;10.00;;;1.90;95.30;;;;;;10395186;28;20232;-79
2022/03/30 18:30:27;;;;;;;18.97;7.80;;;1.80;95.20;;;;;;10395433;28;20213;-77
2022/03/30 18:35:50;;;;;;;23.03;7.80;;;1.70;95.50;;;;;;10393692;28;20280;-77
2022/03/30 18:41:16;;;;;;;21.03;8.47;;;1.60;95.30;;;;;;10394091;28;20194;-79
2022/03/30 18:46:38;;;;;;;17.47;6.70;;;1.60;95.60;;;;;;10380548;28;20253;-77
2022/03/30 18:52:00;;;;;;;39.70;17.50;;;1.50;95.50;;;;;;10402908;28;20227;-76
2022/03/30 18:57:21;;;;;;;46.20;18.43;;;1.50;95.20;;;;;;10402513;28;20198;-75
2022/03/30 19:08:25;;;;;;;29.73;12.87;;;1.50;95.10;;;;;;10402054;28;20226;-78
2022/03/30 19:13:47;;;;;;;58.70;16.47;;;1.50;94.80;;;;;;10400598;28;20200;-77
2022/03/30 19:19:09;;;;;;;31.40;11.13;;;1.40;94.90;;;;;;10412007;28;20223;-77
2022/03/30 19:24:34;;;;;;;21.37;9.27;;;1.30;95.30;;;;;;10400595;28;20237;-76
2022/03/30 19:29:56;;;;;;;38.10;17.37;;;1.40;95.20;;;;;;10401658;28;20198;-76
2022/03/30 19:35:19;;;;;;;20.33;9.33;;;1.30;95.60;;;;;;10399889;28;20485;-76
2022/03/30 19:40:42;;;;;;;31.60;14.23;;;1.30;95.30;;;;;;10399612;28;20204;-76
2022/03/30 19:46:05;;;;;;;30.30;14.17;;;1.20;95.30;;;;;;10399561;28;20421;-77
2022/03/30 19:51:27;;;;;;;32.00;15.80;;;1.20;95.00;;;;;;10399110;28;20460;-77
2022/03/30 19:56:49;;;;;;;35.30;14.87;;;1.10;95.60;;;;;;10400336;28;20202;-76
2022/03/30 20:02:11;;;;;;;32.27;12.87;;;1.10;95.50;;;;;;10399428;28;20205;-77
2022/03/30 20:07:34;;;;;;;34.33;13.23;;;1.00;95.50;;;;;;10399384;28;20226;-77
2022/03/30 20:12:56;;;;;;;34.60;15.93;;;1.00;95.70;;;;;;10398729;28;20517;-79
2022/03/30 20:18:20;;;;;;;42.60;21.80;;;1.00;95.70;;;;;;10368485;28;20507;-76
2022/03/30 20:23:42;;;;;;;39.70;15.70;;;0.90;96.00;;;;;;10399912;28;20198;-76
2022/03/30 20:29:06;;;;;;;26.23;10.20;;;1.00;96.10;;;;;;10399184;28;20200;-80
2022/03/30 20:34:28;;;;;;;22.87;8.50;;;1.00;96.00;;;;;;10398685;28;20194;-79
2022/03/30 20:39:51;;;;;;;77.10;37.80;;;0.90;96.20;;;;;;10398706;28;20187;-76
2022/03/30 20:45:15;;;;;;;55.73;18.30;;;0.80;96.90;;;;;;10397652;28;20234;-75
2022/03/30 20:50:37;;;;;;;44.17;13.00;;;0.70;97.40;;;;;;10398694;28;20266;-75
2022/03/30 20:55:59;;;;;;;25.83;11.20;;;0.70;97.80;;;;;;10398829;28;20196;-76
2022/03/30 21:01:21;;;;;;;23.80;10.00;;;0.60;98.20;;;;;;10387371;28;20221;-76
2022/03/30 21:06:43;;;;;;;29.33;10.87;;;0.60;98.70;;;;;;10398291;28;20230;-79
2022/03/30 21:12:05;;;;;;;29.73;9.40;;;0.50;99.10;;;;;;10397807;28;20264;-76
2022/03/30 21:17:27;;;;;;;20.33;9.77;;;0.40;99.50;;;;;;10411818;28;20254;-76
2022/03/30 21:22:49;;;;;;;20.70;8.67;;;0.40;99.90;;;;;;10400856;28;20201;-80
2022/03/30 21:28:12;;;;;;;25.23;10.60;;;0.30;99.90;;;;;;10385601;28;20234;-79
2022/03/30 21:33:34;;;;;;;29.30;8.93;;;0.30;99.90;;;;;;10388903;28;20485;-76
2022/03/30 21:38:56;;;;;;;76.80;28.90;;;0.30;99.90;;;;;;10400758;28;20239;-75
2022/03/30 21:44:20;;;;;;;38.70;14.00;;;0.30;99.90;;;;;;10400385;28;20210;-76
2022/03/30 21:49:44;;;;;;;29.17;9.60;;;0.30;99.90;;;;;;10402020;28;20208;-77
2022/03/30 21:55:09;;;;;;;16.07;7.50;;;0.20;99.90;;;;;;10402227;28;20206;-75
2022/03/30 22:00:57;;;;;;;14.70;7.23;;;0.20;99.90;;;;;;10414129;28;20197;-80
2022/03/30 22:06:24;;;;;;;12.60;6.60;;;0.20;99.90;;;;;;10384115;28;20193;-79
2022/03/30 22:11:47;;;;;;;16.40;7.70;;;0.20;99.90;;;;;;10399710;28;20197;-76
2022/03/30 22:17:09;;;;;;;10.40;5.33;;;0.10;99.90;;;;;;10397946;28;20415;-76
2022/03/30 22:22:31;;;;;;;11.03;5.37;;;0.10;99.90;;;;;;10412973;28;20199;-77
2022/03/30 22:27:53;;;;;;;8.80;5.20;;;0.10;99.90;;;;;;10403993;28;20214;-78
2022/03/30 22:38:55;;;;;;;14.93;5.20;;;-0.10;99.90;;;;;;10403185;28;20481;-76
2022/03/30 22:44:19;;;;;;;49.70;20.00;;;-0.10;99.90;;;;;;10404105;28;20512;-79
2022/03/30 22:49:41;;;;;;;27.90;10.00;;;-0.10;99.90;;;;;;10402893;28;20193;-77
2022/03/30 22:55:04;;;;;;;13.60;6.30;;;-0.20;99.90;;;;;;10403469;28;20259;-76
2022/03/30 23:00:27;;;;;;;10.83;5.23;;;-0.20;99.90;;;;;;10402717;28;20205;-75
2022/03/30 23:11:29;;;;;;;12.67;4.40;;;-0.20;99.90;;;;;;10401184;28;20199;-77
2022/03/30 23:16:51;;;;;;;10.43;5.07;;;-0.40;99.90;;;;;;10380184;28;20239;-76
2022/03/30 23:22:13;;;;;;;7.07;3.77;;;-0.40;99.90;;;;;;10398952;28;20203;-79
2022/03/30 23:27:36;;;;;;;10.63;3.90;;;-0.50;99.90;;;;;;10400429;28;20208;-76
2022/03/30 23:32:58;;;;;;;7.73;4.50;;;-0.50;99.90;;;;;;10400541;28;20187;-77
2022/03/30 23:38:20;;;;;;;10.97;4.80;;;-0.60;99.90;;;;;;10400941;28;20236;-79
2022/03/30 23:43:42;;;;;;;20.50;10.10;;;-0.60;99.90;;;;;;10399983;28;20204;-77
2022/03/30 23:49:04;;;;;;;13.17;6.43;;;-0.60;99.90;;;;;;10401261;28;20380;-79
2022/03/30 23:54:26;;;;;;;10.73;5.10;;;-0.60;99.90;;;;;;10400489;28;20544;-76
2022/03/30 23:59:48;;;;;;;12.13;4.77;;;-0.70;99.90;;;;;;10399207;28;20564;-77
